Time;durP1;ratioP1;P1;durP2;ratioP2;P2;SDS_P1;SDS_P2;PMS_P1;PMS_P2;Temp;Humidity;BMP_temperature;BMP_pressure;BME280_temperature;BME280_humidity;BME280_pressure;Samples;Min_cycle;Max_cycle;Signal;HPM_P1;HPM_P2
2022/10/21 00:01:29;;;;;;;18.58;9.48;;;15.00;90.90;;;;;;5065805;28;20382;-87
2022/10/21 00:03:55;;;;;;;19.88;9.10;;;15.10;90.90;;;;;;5065390;28;20032;-88
2022/10/21 00:06:21;;;;;;;21.02;9.50;;;15.10;90.90;;;;;;5062320;28;20056;-89
2022/10/21 00:08:46;;;;;;;16.52;9.98;;;15.10;91.00;;;;;;5079133;28;20043;-88
2022/10/21 00:11:12;;;;;;;16.05;8.98;;;15.10;91.40;;;;;;5062223;28;20039;-88
2022/10/21 00:13:38;;;;;;;17.25;9.43;;;15.10;91.00;;;;;;5061820;28;20020;-86
2022/10/21 00:16:16;;;;;;;18.85;9.98;;;15.10;91.10;;;;;;5095408;28;20017;-87
2022/10/21 00:18:46;;;;;;;18.88;9.88;;;15.10;91.20;;;;;;5095625;28;20028;-87
2022/10/21 00:21:15;;;;;;;16.73;9.18;;;15.10;91.10;;;;;;5094722;28;20020;-88
2022/10/21 00:23:42;;;;;;;18.45;10.23;;;15.10;91.10;;;;;;5095310;28;20012;-87
2022/10/21 00:26:08;;;;;;;17.65;9.07;;;15.10;91.00;;;;;;5095502;28;20032;-87
2022/10/21 00:28:35;;;;;;;18.02;9.38;;;15.10;91.00;;;;;;5095244;28;20156;-87
2022/10/21 00:31:01;;;;;;;18.50;9.80;;;15.10;91.00;;;;;;5095309;28;20025;-88
2022/10/21 00:33:27;;;;;;;19.42;9.77;;;15.20;91.00;;;;;;5095125;28;20032;-88
2022/10/21 00:35:56;;;;;;;21.60;9.65;;;15.20;90.90;;;;;;5095193;28;20423;-87
2022/10/21 00:38:22;;;;;;;18.17;9.65;;;15.20;90.90;;;;;;5094642;28;20020;-88
2022/10/21 00:40:48;;;;;;;18.13;9.65;;;15.10;90.90;;;;;;5094832;28;20416;-88
2022/10/21 00:43:14;;;;;;;19.48;9.07;;;15.10;90.80;;;;;;5095415;28;20027;-87
2022/10/21 00:45:41;;;;;;;18.17;9.65;;;15.10;90.80;;;;;;5077850;28;20028;-88
2022/10/21 00:48:18;;;;;;;20.00;8.73;;;15.10;90.80;;;;;;5077692;28;20028;-88
2022/10/21 00:51:05;;;;;;;17.15;9.10;;;15.10;90.70;;;;;;5095954;28;20028;-88
2022/10/21 00:53:33;;;;;;;19.50;9.35;;;15.10;90.70;;;;;;5094545;28;20032;-88
2022/10/21 00:56:04;;;;;;;19.70;9.48;;;15.10;90.70;;;;;;5094431;28;20024;-87
2022/10/21 00:58:32;;;;;;;20.30;9.70;;;15.10;90.80;;;;;;5094992;28;20028;-88
2022/10/21 01:01:00;;;;;;;17.30;9.02;;;15.10;90.80;;;;;;5077815;28;20038;-88
2022/10/21 01:03:28;;;;;;;16.85;9.50;;;15.10;90.80;;;;;;5094829;28;20056;-87
2022/10/21 01:05:56;;;;;;;16.33;8.75;;;15.10;90.80;;;;;;5094815;28;20044;-88
2022/10/21 01:08:22;;;;;;;19.00;9.25;;;15.10;90.80;;;;;;5094707;28;20111;-87
2022/10/21 01:10:48;;;;;;;19.35;10.13;;;15.10;91.30;;;;;;5094460;28;20024;-88
2022/10/21 01:13:49;;;;;;;17.35;8.80;;;15.10;91.30;;;;;;5077351;28;20043;-87
2022/10/21 01:16:42;;;;;;;17.83;8.88;;;15.10;90.80;;;;;;5040975;28;20075;-87
2022/10/21 01:20:02;;;;;;;21.38;9.57;;;15.10;90.70;;;;;;5094672;28;20024;-88
2022/10/21 01:22:59;;;;;;;19.40;9.27;;;15.10;90.70;;;;;;5094213;28;20508;-88
2022/10/21 01:26:14;;;;;;;19.35;9.15;;;15.10;90.70;;;;;;5096042;28;20016;-88
2022/10/21 01:28:54;;;;;;;14.95;8.93;;;15.00;90.70;;;;;;5078880;28;20028;-88
2022/10/21 01:31:41;;;;;;;17.92;8.25;;;15.00;90.70;;;;;;5093804;28;20024;-88
2022/10/21 01:34:34;;;;;;;18.95;9.73;;;15.00;90.60;;;;;;5093759;28;20035;-88
2022/10/21 01:37:15;;;;;;;17.40;8.98;;;14.90;90.50;;;;;;5093944;28;20020;-87
2022/10/21 01:40:02;;;;;;;18.77;8.70;;;14.90;90.60;;;;;;5093897;28;20114;-88
2022/10/21 01:42:39;;;;;;;15.55;8.52;;;14.90;90.70;;;;;;5093961;28;20055;-88
2022/10/21 01:45:41;;;;;;;18.25;9.20;;;14.90;90.60;;;;;;5093424;28;20107;-88
2022/10/21 01:48:12;;;;;;;17.77;8.95;;;14.90;90.60;;;;;;5087148;28;20397;-88
2022/10/21 01:50:43;;;;;;;17.30;8.32;;;14.90;90.50;;;;;;5093378;28;20536;-88
2022/10/21 01:53:12;;;;;;;17.50;8.80;;;14.90;90.50;;;;;;5093360;28;20424;-88
2022/10/21 01:55:40;;;;;;;17.38;9.25;;;14.80;90.40;;;;;;5093382;28;20012;-88
2022/10/21 01:58:10;;;;;;;17.90;9.02;;;14.80;90.60;;;;;;5093607;28;20024;-88
2022/10/21 02:00:37;;;;;;;17.25;9.27;;;14.80;90.60;;;;;;5093443;28;20024;-87
2022/10/21 02:03:08;;;;;;;17.23;8.75;;;14.80;90.70;;;;;;5059614;28;20050;-88
2022/10/21 02:05:34;;;;;;;16.50;8.63;;;14.80;90.60;;;;;;5093367;28;20523;-88
2022/10/21 02:08:00;;;;;;;20.73;9.65;;;14.70;90.50;;;;;;5059860;28;20026;-88
2022/10/21 02:10:28;;;;;;;19.38;9.27;;;14.70;90.50;;;;;;5076698;28;20125;-87
2022/10/21 02:12:57;;;;;;;16.90;8.70;;;14.70;90.50;;;;;;5093428;28;20047;-88
2022/10/21 02:15:25;;;;;;;15.57;8.43;;;14.70;90.60;;;;;;5093360;28;20051;-88
2022/10/21 02:18:02;;;;;;;15.98;9.07;;;14.70;90.60;;;;;;5076150;28;20038;-88
2022/10/21 02:20:31;;;;;;;16.73;9.32;;;14.70;90.50;;;;;;5093028;28;20065;-86
2022/10/21 02:22:57;;;;;;;16.27;8.32;;;14.70;90.40;;;;;;5093267;28;20016;-88
2022/10/21 02:25:27;;;;;;;14.65;8.15;;;14.70;90.40;;;;;;5059805;28;20084;-88
2022/10/21 02:27:54;;;;;;;16.10;8.43;;;14.70;90.30;;;;;;5092828;28;20024;-88
2022/10/21 02:30:20;;;;;;;15.40;7.93;;;14.70;90.20;;;;;;5093290;28;20027;-88
2022/10/21 02:33:16;;;;;;;15.57;8.68;;;14.70;90.20;;;;;;5094126;28;20027;-88
2022/10/21 02:36:09;;;;;;;18.63;8.48;;;14.70;90.20;;;;;;5092948;28;20016;-88
2022/10/21 02:38:43;;;;;;;13.60;7.72;;;14.70;90.20;;;;;;5092636;28;20028;-88
2022/10/21 02:41:12;;;;;;;15.82;8.60;;;14.70;90.10;;;;;;5092357;28;20073;-88
2022/10/21 02:43:42;;;;;;;17.08;8.75;;;14.60;90.10;;;;;;5093074;28;20024;-88
2022/10/21 02:46:11;;;;;;;17.20;8.07;;;14.60;90.10;;;;;;5092744;28;20022;-88
2022/10/21 02:48:38;;;;;;;17.60;8.43;;;14.70;90.10;;;;;;5093349;28;20506;-88
2022/10/21 02:51:06;;;;;;;16.35;8.38;;;14.70;90.10;;;;;;5076130;28;20524;-88
2022/10/21 02:53:33;;;;;;;16.63;8.98;;;14.60;90.10;;;;;;5075913;28;20031;-87
2022/10/21 02:55:59;;;;;;;17.38;7.90;;;14.60;90.00;;;;;;5075865;28;20480;-88
2022/10/21 02:58:25;;;;;;;15.65;7.75;;;14.60;90.00;;;;;;5075941;28;20062;-87
2022/10/21 03:00:51;;;;;;;21.23;8.40;;;14.50;90.00;;;;;;5059015;28;20032;-88
2022/10/21 03:03:16;;;;;;;14.70;7.72;;;14.50;90.00;;;;;;5059627;28;20059;-87
2022/10/21 03:05:42;;;;;;;14.60;8.35;;;14.50;90.00;;;;;;5059081;28;20405;-88
2022/10/21 03:08:08;;;;;;;18.13;8.52;;;14.50;90.10;;;;;;5058762;28;20024;-88
2022/10/21 03:10:33;;;;;;;13.63;8.00;;;14.50;90.10;;;;;;5075648;28;20028;-88
2022/10/21 03:12:59;;;;;;;13.02;7.82;;;14.50;90.10;;;;;;5075499;28;20477;-87
2022/10/21 03:15:25;;;;;;;15.60;8.63;;;14.50;90.00;;;;;;5075921;28;20020;-87
2022/10/21 03:17:51;;;;;;;19.00;8.60;;;14.50;90.00;;;;;;5075742;28;20043;-87
2022/10/21 03:20:16;;;;;;;15.77;8.82;;;14.50;90.00;;;;;;5059205;28;20036;-87
2022/10/21 03:22:43;;;;;;;16.23;8.40;;;14.50;90.00;;;;;;5092000;28;20527;-88
2022/10/21 03:25:09;;;;;;;16.42;8.40;;;14.50;90.10;;;;;;5059092;28;20508;-88
2022/10/21 03:27:35;;;;;;;17.48;8.45;;;14.50;90.10;;;;;;5075265;28;20020;-87
2022/10/21 03:30:01;;;;;;;14.00;8.25;;;14.50;90.10;;;;;;5058586;28;20034;-88
2022/10/21 03:32:26;;;;;;;14.45;8.00;;;14.50;90.00;;;;;;5058835;28;20032;-88
2022/10/21 03:34:52;;;;;;;18.48;8.57;;;14.50;90.00;;;;;;5058592;28;20035;-88
2022/10/21 03:37:18;;;;;;;17.88;8.55;;;14.40;90.00;;;;;;5058994;28;20027;-88
2022/10/21 03:39:43;;;;;;;15.65;7.90;;;14.40;90.50;;;;;;5075115;28;20591;-87
2022/10/21 03:42:09;;;;;;;14.88;7.45;;;14.40;90.10;;;;;;5059079;28;20028;-88
2022/10/21 03:44:34;;;;;;;14.18;8.38;;;14.40;90.10;;;;;;5058854;28;20024;-88
2022/10/21 03:47:00;;;;;;;16.58;8.25;;;14.40;90.00;;;;;;5058345;28;20169;-88
2022/10/21 03:49:26;;;;;;;14.52;7.95;;;14.40;90.00;;;;;;5058274;28;20034;-88
2022/10/21 03:51:51;;;;;;;14.60;7.80;;;14.30;89.90;;;;;;5096119;28;20537;-88
2022/10/21 03:54:17;;;;;;;16.98;8.35;;;14.30;89.90;;;;;;5078752;28;20122;-88
2022/10/21 03:56:43;;;;;;;15.60;7.25;;;14.30;90.00;;;;;;5079048;28;20032;-89
2022/10/21 03:59:09;;;;;;;16.00;8.00;;;14.30;89.90;;;;;;5078975;28;20036;-88
2022/10/21 04:01:35;;;;;;;17.83;8.57;;;14.30;89.70;;;;;;5078821;28;20038;-88
2022/10/21 04:04:00;;;;;;;15.45;8.60;;;14.20;89.80;;;;;;5078757;28;20035;-88
2022/10/21 04:06:26;;;;;;;18.05;9.30;;;14.20;89.90;;;;;;5078460;28;20052;-88
2022/10/21 04:08:52;;;;;;;18.92;9.15;;;14.20;89.80;;;;;;5062055;28;20024;-88
2022/10/21 04:11:17;;;;;;;17.80;9.70;;;14.20;89.90;;;;;;5078731;28;20035;-88
2022/10/21 04:13:43;;;;;;;15.82;9.05;;;14.20;89.90;;;;;;5078683;28;20029;-88
2022/10/21 04:16:15;;;;;;;17.20;8.95;;;14.20;90.00;;;;;;5062361;28;20020;-88
2022/10/21 04:18:41;;;;;;;19.15;9.00;;;14.20;90.00;;;;;;5095650;28;20397;-88
2022/10/21 04:21:07;;;;;;;18.63;8.50;;;14.20;90.00;;;;;;5061500;28;20385;-88
2022/10/21 04:23:33;;;;;;;20.67;8.90;;;14.10;90.00;;;;;;5061658;28;20016;-88
2022/10/21 04:26:00;;;;;;;16.95;8.05;;;14.20;90.40;;;;;;5061789;28;20035;-88
2022/10/21 04:28:26;;;;;;;17.23;7.63;;;14.20;90.00;;;;;;5095072;28;20047;-88
2022/10/21 04:30:52;;;;;;;21.35;8.15;;;14.10;90.30;;;;;;5061485;28;20473;-88
2022/10/21 04:33:17;;;;;;;16.83;8.38;;;14.10;90.00;;;;;;5095125;28;20039;-87
2022/10/21 04:35:43;;;;;;;14.75;8.40;;;14.10;89.80;;;;;;5077897;28;20135;-88
2022/10/21 04:38:09;;;;;;;16.92;8.60;;;14.10;89.80;;;;;;5061176;28;20028;-88
2022/10/21 04:40:35;;;;;;;20.25;8.70;;;14.10;89.70;;;;;;5094380;28;20065;-88
2022/10/21 04:43:01;;;;;;;16.63;8.23;;;14.20;89.50;;;;;;5078212;28;20035;-88
2022/10/21 04:45:27;;;;;;;16.83;8.63;;;14.20;89.40;;;;;;5094685;28;20110;-88
2022/10/21 04:47:53;;;;;;;13.52;7.32;;;14.10;89.20;;;;;;5061433;28;20047;-88
2022/10/21 04:50:18;;;;;;;13.75;7.32;;;14.00;89.10;;;;;;5077543;28;20051;-88
2022/10/21 04:52:44;;;;;;;13.20;6.78;;;14.00;89.10;;;;;;5060590;28;20048;-88
2022/10/21 04:55:10;;;;;;;13.13;6.60;;;14.00;88.90;;;;;;5061026;28;20028;-87
2022/10/21 04:57:36;;;;;;;13.57;7.85;;;13.90;88.80;;;;;;5077907;28;20028;-87
2022/10/21 05:00:04;;;;;;;12.30;6.85;;;13.90;88.70;;;;;;5077246;28;20028;-88
2022/10/21 05:02:29;;;;;;;10.70;6.30;;;13.90;88.90;;;;;;5093140;28;20103;-88
2022/10/21 05:04:55;;;;;;;10.05;5.45;;;13.90;88.50;;;;;;5094165;28;20078;-88
2022/10/21 05:07:21;;;;;;;10.43;5.55;;;13.80;88.30;;;;;;5060886;28;20036;-88
2022/10/21 05:09:46;;;;;;;11.13;6.30;;;13.70;88.20;;;;;;5077812;28;20038;-88
2022/10/21 05:12:12;;;;;;;12.48;6.70;;;13.70;88.20;;;;;;5077153;28;20024;-88
2022/10/21 05:14:38;;;;;;;15.05;6.97;;;13.70;88.50;;;;;;5076811;28;20114;-88
2022/10/21 05:17:04;;;;;;;15.10;7.28;;;13.80;88.80;;;;;;5071309;28;20067;-88
2022/10/21 05:19:29;;;;;;;14.52;7.20;;;13.80;88.90;;;;;;5062211;28;20039;-88
2022/10/21 05:21:55;;;;;;;17.58;7.53;;;13.80;89.10;;;;;;5079938;28;20068;-88
2022/10/21 05:24:21;;;;;;;13.65;6.78;;;13.80;90.00;;;;;;5097374;28;20099;-89
2022/10/21 05:26:46;;;;;;;15.85;7.35;;;13.80;89.40;;;;;;5079734;28;20027;-89
2022/10/21 05:29:12;;;;;;;14.00;7.15;;;13.80;89.60;;;;;;5097093;28;20035;-89
2022/10/21 05:31:38;;;;;;;14.77;7.30;;;13.90;89.70;;;;;;5080021;28;20062;-88
2022/10/21 05:34:03;;;;;;;15.15;7.30;;;13.90;89.60;;;;;;5079879;28;20027;-88
2022/10/21 05:36:29;;;;;;;14.32;6.78;;;13.90;89.80;;;;;;5113634;28;20025;-88
2022/10/21 05:38:55;;;;;;;17.10;7.72;;;13.90;89.70;;;;;;5096743;28;20107;-88
2022/10/21 05:41:21;;;;;;;15.43;7.53;;;14.00;89.80;;;;;;5097063;28;20026;-88
2022/10/21 05:43:46;;;;;;;13.27;7.07;;;14.00;89.80;;;;;;5080391;28;20028;-88
2022/10/21 05:46:12;;;;;;;16.88;7.60;;;14.00;89.70;;;;;;5080351;28;20020;-88
2022/10/21 05:48:38;;;;;;;13.07;7.07;;;14.00;89.60;;;;;;5079774;28;20051;-88
2022/10/21 05:51:04;;;;;;;15.40;7.80;;;14.00;89.30;;;;;;5096207;28;20034;-88
2022/10/21 05:53:30;;;;;;;19.13;7.72;;;13.90;89.30;;;;;;5096010;28;20028;-88
2022/10/21 05:56:04;;;;;;;13.00;7.72;;;13.90;89.40;;;;;;5066404;28;20078;-88
2022/10/21 05:58:31;;;;;;;14.90;7.75;;;14.00;89.50;;;;;;5091604;28;20039;-89
2022/10/21 06:00:58;;;;;;;14.65;7.45;;;13.90;89.40;;;;;;5075609;28;20127;-88
2022/10/21 06:03:30;;;;;;;13.48;7.78;;;14.00;89.40;;;;;;5075123;28;20031;-88
2022/10/21 06:06:00;;;;;;;12.85;6.75;;;14.00;89.40;;;;;;5092523;28;20440;-88
2022/10/21 06:08:27;;;;;;;11.60;7.28;;;13.90;89.30;;;;;;5075955;28;20032;-89
2022/10/21 06:11:04;;;;;;;11.50;6.45;;;14.00;89.40;;;;;;5076208;28;20034;-88
2022/10/21 06:13:31;;;;;;;10.95;6.60;;;14.00;89.30;;;;;;5091519;28;20039;-88
2022/10/21 06:15:58;;;;;;;8.02;5.65;;;14.00;89.10;;;;;;5075556;28;20058;-88
2022/10/21 06:18:23;;;;;;;13.05;6.35;;;14.00;89.00;;;;;;5092668;28;20050;-88
2022/10/21 06:20:49;;;;;;;13.60;5.97;;;14.00;88.90;;;;;;5092451;28;20032;-88
2022/10/21 06:23:15;;;;;;;14.70;6.53;;;14.00;89.70;;;;;;5092840;28;20027;-88
2022/10/21 06:25:42;;;;;;;11.52;6.57;;;13.90;88.80;;;;;;5076055;28;20047;-88
2022/10/21 06:28:08;;;;;;;12.82;6.18;;;13.90;88.90;;;;;;5059471;28;20024;-89
2022/10/21 06:30:37;;;;;;;10.68;6.05;;;13.90;89.00;;;;;;5092457;28;20064;-88
2022/10/21 06:33:02;;;;;;;11.90;5.82;;;13.80;89.10;;;;;;5075674;28;20025;-88
2022/10/21 06:35:28;;;;;;;12.48;6.60;;;13.80;89.20;;;;;;5075844;28;20043;-89
2022/10/21 06:37:54;;;;;;;14.00;6.85;;;13.80;89.20;;;;;;5092584;28;20090;-88
2022/10/21 06:40:19;;;;;;;13.10;6.57;;;13.80;89.30;;;;;;5075546;28;20130;-88
2022/10/21 06:42:45;;;;;;;10.13;5.90;;;13.90;89.50;;;;;;5058939;28;20031;-88
2022/10/21 06:45:11;;;;;;;11.98;6.53;;;13.90;89.50;;;;;;5059161;28;20035;-88
2022/10/21 06:47:36;;;;;;;11.25;6.53;;;13.90;89.40;;;;;;5075526;28;20029;-89
2022/10/21 06:50:02;;;;;;;11.15;6.43;;;13.90;89.50;;;;;;5059074;28;20027;-88
2022/10/21 06:52:31;;;;;;;15.35;6.78;;;14.00;89.70;;;;;;5092074;28;20103;-88
2022/10/21 06:54:57;;;;;;;12.35;6.60;;;13.90;89.70;;;;;;5092799;28;20454;-88
2022/10/21 06:57:22;;;;;;;18.77;6.93;;;14.00;89.80;;;;;;5075503;28;20066;-88
2022/10/21 06:59:48;;;;;;;13.48;7.00;;;14.00;89.80;;;;;;5075290;28;20020;-88
2022/10/21 07:02:14;;;;;;;11.57;7.35;;;14.00;89.80;;;;;;5075508;28;20031;-88
2022/10/21 07:04:43;;;;;;;13.05;6.47;;;14.00;89.70;;;;;;5077294;28;20024;-88
2022/10/21 07:07:09;;;;;;;11.30;5.82;;;14.00;89.80;;;;;;5095479;28;20040;-88
2022/10/21 07:09:35;;;;;;;14.07;6.85;;;14.00;89.90;;;;;;5062531;28;20028;-88
2022/10/21 07:12:01;;;;;;;12.75;6.72;;;14.00;90.00;;;;;;5062001;28;20138;-87
2022/10/21 07:14:27;;;;;;;15.77;6.22;;;14.10;90.00;;;;;;5095733;28;20122;-87
2022/10/21 07:16:52;;;;;;;12.18;5.93;;;14.10;90.00;;;;;;5062010;28;20054;-88
2022/10/21 07:19:18;;;;;;;16.15;6.35;;;14.10;90.10;;;;;;5061448;28;20450;-88
2022/10/21 07:21:45;;;;;;;11.75;6.35;;;14.10;90.10;;;;;;5096098;28;20066;-88
2022/10/21 07:24:11;;;;;;;14.13;6.70;;;14.20;90.20;;;;;;5062377;28;20023;-88
2022/10/21 07:26:37;;;;;;;14.68;6.50;;;14.20;90.20;;;;;;5081081;28;20473;-88
2022/10/21 07:29:04;;;;;;;12.50;6.47;;;14.20;90.30;;;;;;5099520;28;20016;-88
2022/10/21 07:31:35;;;;;;;13.32;6.53;;;14.30;90.40;;;;;;5099409;28;20057;-88
2022/10/21 07:34:03;;;;;;;14.13;6.67;;;14.30;90.40;;;;;;5098801;28;20020;-87
2022/10/21 07:36:32;;;;;;;13.48;6.55;;;14.30;90.50;;;;;;5099318;28;20027;-89
2022/10/21 07:39:02;;;;;;;13.13;6.43;;;14.40;90.50;;;;;;5099215;28;20023;-88
2022/10/21 07:41:34;;;;;;;15.45;7.13;;;14.40;90.60;;;;;;5100127;28;20026;-87
2022/10/21 07:44:00;;;;;;;;;;;14.40;90.60;;;;;;5100263;28;20047;-87
2022/10/21 07:46:26;;;;;;;14.07;6.35;;;14.40;90.90;;;;;;5099742;28;19911;-88
2022/10/21 07:48:52;;;;;;;12.63;6.40;;;14.40;90.90;;;;;;5065978;28;20451;-87
2022/10/21 07:51:24;;;;;;;14.60;6.93;;;14.40;90.90;;;;;;5083011;28;20024;-88
2022/10/21 07:53:52;;;;;;;12.82;6.40;;;14.40;91.00;;;;;;5099213;28;20022;-88
2022/10/21 07:56:21;;;;;;;16.42;7.35;;;14.50;90.90;;;;;;5098740;28;20077;-88
2022/10/21 07:58:47;;;;;;;12.02;6.80;;;14.50;91.00;;;;;;5099073;28;20015;-88
2022/10/21 08:01:14;;;;;;;16.77;7.90;;;14.50;91.00;;;;;;5098366;28;20024;-88
2022/10/21 08:03:39;;;;;;;13.77;6.88;;;14.60;91.00;;;;;;5081838;28;20023;-88
2022/10/21 08:06:08;;;;;;;12.50;7.25;;;14.60;91.00;;;;;;5065068;28;20134;-88
2022/10/21 08:08:34;;;;;;;17.63;7.78;;;14.60;91.10;;;;;;5098785;28;20012;-88
2022/10/21 08:11:00;;;;;;;12.30;6.80;;;14.60;91.20;;;;;;5082085;28;20024;-88
2022/10/21 08:13:26;;;;;;;16.95;7.93;;;14.70;91.30;;;;;;5082880;28;20035;-88
2022/10/21 08:15:53;;;;;;;15.20;7.63;;;14.70;91.30;;;;;;5081071;28;20107;-87
2022/10/21 08:18:20;;;;;;;15.52;8.13;;;14.70;91.30;;;;;;5082245;28;20053;-87
2022/10/21 08:20:47;;;;;;;13.02;7.55;;;14.80;91.40;;;;;;5097854;28;20472;-87
2022/10/21 08:23:15;;;;;;;17.33;7.82;;;14.80;91.50;;;;;;5080960;28;20388;-88
2022/10/21 08:25:53;;;;;;;16.58;7.70;;;14.80;91.50;;;;;;5096942;28;20020;-88
2022/10/21 08:28:19;;;;;;;16.65;7.30;;;14.90;91.40;;;;;;5077538;28;20025;-87
2022/10/21 08:30:45;;;;;;;15.32;6.40;;;14.90;91.40;;;;;;5044969;28;20028;-88
2022/10/21 08:33:13;;;;;;;13.77;6.88;;;15.00;91.40;;;;;;5060644;28;20481;-87
2022/10/21 08:35:39;;;;;;;14.70;7.47;;;15.00;91.40;;;;;;5078226;28;20358;-88
2022/10/21 08:38:06;;;;;;;12.52;6.95;;;15.10;91.40;;;;;;5077284;28;20052;-88
2022/10/21 08:40:48;;;;;;;14.88;7.53;;;15.10;91.50;;;;;;5061093;28;20024;-88
2022/10/21 08:43:21;;;;;;;12.73;7.18;;;15.10;91.60;;;;;;5078110;28;20024;-87
2022/10/21 08:46:07;;;;;;;;;;;15.10;91.50;;;;;;5077943;28;20023;-88
2022/10/21 08:48:38;;;;;;;14.25;6.72;;;15.10;91.90;;;;;;5077152;28;20392;-88
2022/10/21 08:51:05;;;;;;;13.02;6.78;;;15.10;91.70;;;;;;5095573;28;20532;-87
2022/10/21 08:53:38;;;;;;;12.90;6.78;;;15.10;91.70;;;;;;5077495;28;20090;-88
2022/10/21 08:56:11;;;;;;;;;;;15.10;91.70;;;;;;5078028;28;20381;-87
2022/10/21 08:58:37;;;;;;;12.80;5.97;;;15.20;91.70;;;;;;5077471;28;19904;-88
2022/10/21 09:01:25;;;;;;;15.88;8.02;;;15.10;91.80;;;;;;5095125;28;20036;-88
2022/10/21 09:04:26;;;;;;;15.75;7.43;;;15.10;92.00;;;;;;5077418;28;20028;-88
2022/10/21 09:07:14;;;;;;;12.20;7.45;;;15.10;92.10;;;;;;5076783;28;20036;-88
2022/10/21 09:09:54;;;;;;;16.50;7.25;;;15.20;92.00;;;;;;5076473;28;20035;-87
2022/10/21 09:12:27;;;;;;;13.45;6.82;;;15.20;92.20;;;;;;5076615;28;20427;-87
2022/10/21 09:15:32;;;;;;;13.35;6.78;;;15.20;92.30;;;;;;5076856;28;20024;-87
2022/10/21 09:18:17;;;;;;;12.50;7.05;;;15.20;92.50;;;;;;5095641;28;20032;-88
2022/10/21 09:21:11;;;;;;;15.35;7.70;;;15.30;92.40;;;;;;5076829;28;20059;-87
2022/10/21 09:23:51;;;;;;;13.73;7.25;;;15.30;92.30;;;;;;5079972;28;20032;-87
2022/10/21 09:26:41;;;;;;;14.18;7.40;;;15.30;92.30;;;;;;5078426;28;20016;-90
2022/10/21 09:29:25;;;;;;;17.70;7.43;;;15.30;92.30;;;;;;5077122;28;20032;-91
2022/10/21 09:31:51;;;;;;;19.10;8.48;;;15.40;92.30;;;;;;5077461;28;20058;-91
2022/10/21 09:34:48;;;;;;;15.50;8.05;;;15.30;92.30;;;;;;5077769;28;20427;-90
2022/10/21 09:37:31;;;;;;;17.30;8.40;;;15.40;92.20;;;;;;5077081;28;20069;-91
2022/10/21 09:40:19;;;;;;;17.80;8.75;;;15.40;92.30;;;;;;5076876;28;20032;-91
2022/10/21 09:42:48;;;;;;;17.45;7.90;;;15.50;92.30;;;;;;5077388;28;20020;-91
2022/10/21 09:45:35;;;;;;;19.67;7.85;;;15.50;92.40;;;;;;5078058;28;20060;-91
2022/10/21 09:48:19;;;;;;;13.88;7.70;;;15.50;92.70;;;;;;5077151;28;20036;-91
2022/10/21 09:50:48;;;;;;;16.13;7.53;;;15.50;92.70;;;;;;5094968;28;20047;-92
2022/10/21 09:53:26;;;;;;;15.27;8.38;;;15.60;92.50;;;;;;5079148;28;20023;-91
2022/10/21 09:56:00;;;;;;;16.02;8.95;;;15.70;92.40;;;;;;5076881;28;20452;-90
2022/10/21 09:58:45;;;;;;;17.33;8.45;;;15.70;92.40;;;;;;5076316;28;20057;-90
2022/10/21 10:01:21;;;;;;;13.50;8.45;;;15.80;92.30;;;;;;5076555;28;20028;-91
2022/10/21 10:03:52;;;;;;;12.70;7.32;;;15.90;92.20;;;;;;5060518;28;20028;-91
2022/10/21 10:06:31;;;;;;;12.63;7.72;;;15.90;92.30;;;;;;5077014;28;20125;-90
2022/10/21 10:09:15;;;;;;;18.13;8.57;;;16.00;92.30;;;;;;5076980;28;20027;-90
2022/10/21 10:11:49;;;;;;;17.80;8.52;;;16.00;92.20;;;;;;5076310;28;20026;-89
2022/10/21 10:14:32;;;;;;;15.38;7.80;;;16.10;92.40;;;;;;5076416;28;20028;-90
2022/10/21 10:17:36;;;;;;;13.57;7.53;;;16.10;92.40;;;;;;5076421;28;20190;-90
2022/10/21 10:20:07;;;;;;;;;;;16.20;92.60;;;;;;5046046;28;20047;-90
2022/10/21 10:22:40;;;;;;;13.90;6.77;;;16.20;92.40;;;;;;5076598;28;19914;-91
2022/10/21 10:25:17;;;;;;;14.13;6.57;;;16.20;92.50;;;;;;5059949;28;20375;-91
2022/10/21 10:28:23;;;;;;;14.65;6.40;;;16.20;92.50;;;;;;5076601;28;20024;-91
2022/10/21 10:30:53;;;;;;;10.00;5.30;;;16.20;92.90;;;;;;4996195;28;20029;-91
2022/10/21 10:33:23;;;;;;;8.95;4.65;;;16.20;92.50;;;;;;4996410;28;20022;-91
2022/10/21 10:35:54;;;;;;;9.80;5.00;;;16.30;92.50;;;;;;5038392;28;20113;-90
2022/10/21 10:38:32;;;;;;;8.70;4.78;;;16.30;92.50;;;;;;5076396;28;20020;-91
2022/10/21 10:41:12;;;;;;;11.40;4.95;;;16.40;92.40;;;;;;5076124;28;20168;-91
2022/10/21 10:43:48;;;;;;;13.43;5.55;;;16.50;92.50;;;;;;5076353;28;20023;-91
2022/10/21 10:46:32;;;;;;;14.50;6.40;;;16.50;92.50;;;;;;5076201;28;20038;-91
2022/10/21 10:49:13;;;;;;;9.43;5.53;;;16.50;92.40;;;;;;5075917;28;20016;-91
2022/10/21 10:51:41;;;;;;;10.38;5.65;;;16.60;92.50;;;;;;5075654;28;20028;-91
2022/10/21 10:54:20;;;;;;;14.25;5.75;;;16.60;92.30;;;;;;5094076;28;20465;-92
2022/10/21 10:56:56;;;;;;;12.32;6.07;;;16.70;92.20;;;;;;5075843;28;20017;-91
2022/10/21 10:59:43;;;;;;;14.02;5.55;;;16.70;92.30;;;;;;5076010;28;20556;-91
2022/10/21 11:02:10;;;;;;;10.63;5.78;;;16.80;92.20;;;;;;5079581;28;20024;-91
2022/10/21 11:04:53;;;;;;;11.02;6.38;;;16.90;92.30;;;;;;5080359;28;20020;-91
2022/10/21 11:07:25;;;;;;;8.50;5.32;;;16.90;92.10;;;;;;5079851;28;20028;-91
2022/10/21 11:09:55;;;;;;;12.55;5.80;;;17.00;91.80;;;;;;5112445;27;20024;-91
2022/10/21 11:12:25;;;;;;;10.43;5.20;;;17.00;92.00;;;;;;5121443;27;20034;-91
2022/10/21 11:20:46;;;;;;;11.82;5.22;;;17.20;91.90;;;;;;5064095;28;20119;-91
2022/10/21 11:23:21;;;;;;;10.93;4.68;;;17.20;91.70;;;;;;5079717;28;20024;-91
2022/10/21 11:25:54;;;;;;;8.70;4.10;;;17.20;91.70;;;;;;5096836;28;20123;-91
2022/10/21 11:28:39;;;;;;;9.50;3.88;;;17.30;91.30;;;;;;5083749;28;20461;-91
2022/10/21 11:31:29;;;;;;;8.55;4.40;;;17.30;91.10;;;;;;5090320;28;20088;-90
2022/10/21 11:34:15;;;;;;;9.73;4.28;;;17.50;91.10;;;;;;5095141;28;20024;-90
2022/10/21 11:37:20;;;;;;;8.02;3.50;;;17.60;91.10;;;;;;5098383;28;20028;-91
2022/10/21 11:40:20;;;;;;;6.30;3.38;;;17.60;90.40;;;;;;5025659;28;20037;-91
2022/10/21 11:42:49;;;;;;;5.88;2.90;;;17.80;89.70;;;;;;5078671;28;20016;-91
2022/10/21 11:45:38;;;;;;;5.88;3.50;;;17.80;90.00;;;;;;5079320;28;20021;-91
2022/10/21 11:48:27;;;;;;;6.35;3.03;;;18.00;90.00;;;;;;5078852;28;20051;-91
2022/10/21 11:51:08;;;;;;;5.03;2.72;;;18.00;87.70;;;;;;5096043;28;20030;-91
2022/10/21 11:54:11;;;;;;;4.65;2.55;;;18.10;87.70;;;;;;5078665;28;20036;-91
2022/10/21 11:56:51;;;;;;;;;;;18.20;87.00;;;;;;5079433;28;20043;-90
2022/10/21 11:59:34;;;;;;;4.68;2.63;;;18.20;86.70;;;;;;5079172;28;20357;-91
2022/10/21 12:02:28;;;;;;;7.70;3.25;;;18.10;86.20;;;;;;5078759;28;20043;-91
2022/10/21 12:05:21;;;;;;;7.38;2.65;;;18.10;86.80;;;;;;5096435;28;20028;-92
2022/10/21 12:08:02;;;;;;;5.82;2.72;;;18.20;86.50;;;;;;5079685;28;20031;-91
2022/10/21 12:11:07;;;;;;;3.63;2.50;;;18.30;86.70;;;;;;5078930;28;20473;-91
2022/10/21 12:13:46;;;;;;;6.55;2.90;;;18.50;85.70;;;;;;5078893;28;20047;-92
2022/10/21 12:16:17;;;;;;;5.60;2.78;;;18.60;86.50;;;;;;5078229;28;20016;-92
2022/10/21 12:18:49;;;;;;;5.25;2.42;;;18.70;86.60;;;;;;5078286;28;20484;-92
2022/10/21 12:21:17;;;;;;;6.47;2.67;;;18.80;84.70;;;;;;5078971;28;20031;-92
2022/10/21 12:23:45;;;;;;;4.63;2.30;;;18.90;84.90;;;;;;5078683;28;20020;-90
2022/10/21 12:26:17;;;;;;;4.53;2.33;;;18.90;83.90;;;;;;5062939;28;20027;-90
2022/10/21 12:28:56;;;;;;;6.25;2.47;;;18.90;82.60;;;;;;5095529;28;20032;-90
2022/10/21 12:31:36;;;;;;;4.38;2.40;;;18.80;82.60;;;;;;5095416;28;20072;-91
2022/10/21 12:34:02;;;;;;;3.67;2.15;;;18.90;83.70;;;;;;5095404;28;20478;-91
2022/10/21 12:36:36;;;;;;;3.45;2.10;;;18.90;83.40;;;;;;5062086;28;20134;-91
2022/10/21 12:39:02;;;;;;;4.28;1.83;;;18.80;83.70;;;;;;5095518;28;20024;-91
2022/10/21 12:41:36;;;;;;;3.47;1.67;;;18.90;84.10;;;;;;5061901;28;20035;-92
2022/10/21 12:44:02;;;;;;;6.70;2.00;;;19.00;83.70;;;;;;5078383;28;20024;-90
2022/10/21 12:46:29;;;;;;;2.65;1.70;;;19.00;83.30;;;;;;5095064;28;20093;-91
2022/10/21 12:48:55;;;;;;;4.43;1.42;;;19.10;83.00;;;;;;5094815;28;20054;-91
2022/10/21 12:51:27;;;;;;;2.60;1.70;;;19.10;82.10;;;;;;5061799;28;20028;-92
2022/10/21 12:54:02;;;;;;;3.72;1.80;;;19.00;81.80;;;;;;5078921;28;20028;-91
2022/10/21 12:56:52;;;;;;;4.05;1.60;;;19.00;82.40;;;;;;5095748;28;20032;-91
2022/10/21 12:59:34;;;;;;;2.42;1.55;;;19.00;82.60;;;;;;5068036;28;20578;-92
2022/10/21 13:02:03;;;;;;;2.33;1.33;;;18.90;82.50;;;;;;5077661;28;20027;-92
2022/10/21 13:04:32;;;;;;;2.38;1.30;;;18.90;83.20;;;;;;5094825;28;20024;-90
2022/10/21 13:07:18;;;;;;;3.10;1.10;;;18.90;83.20;;;;;;5094609;28;20020;-91
2022/10/21 13:09:55;;;;;;;2.40;1.30;;;18.90;82.40;;;;;;5095484;28;20469;-91
2022/10/21 13:12:23;;;;;;;2.95;1.42;;;18.90;82.90;;;;;;5094753;28;20103;-91